sensor_id;sensor_type;location;lat;lon;timestamp;temperature;humidity
19680;DHT22;9989;48.962;9.182;2023-04-15T00:00:03;7.90;99.90
19680;DHT22;9989;48.962;9.182;2023-04-15T00:02:29;7.90;99.90
19680;DHT22;9989;48.962;9.182;2023-04-15T00:04:55;7.80;99.90
19680;DHT22;9989;48.962;9.182;2023-04-15T00:07:20;7.80;99.90
19680;DHT22;9989;48.962;9.182;2023-04-15T00:09:46;7.70;99.90
19680;DHT22;9989;48.962;9.182;2023-04-15T00:12:12;7.70;99.90
19680;DHT22;9989;48.962;9.182;2023-04-15T00:14:37;7.70;99.90
19680;DHT22;9989;48.962;9.182;2023-04-15T00:17:03;7.60;99.90
19680;DHT22;9989;48.962;9.182;2023-04-15T00:19:30;7.60;99.90
19680;DHT22;9989;48.962;9.182;2023-04-15T00:21:56;7.50;99.90
19680;DHT22;9989;48.962;9.182;2023-04-15T00:24:22;7.50;99.90
19680;DHT22;9989;48.962;9.182;2023-04-15T00:26:50;7.40;99.90
19680;DHT22;9989;48.962;9.182;2023-04-15T00:29:16;7.40;99.90
19680;DHT22;9989;48.962;9.182;2023-04-15T00:31:41;7.40;99.90
19680;DHT22;9989;48.962;9.182;2023-04-15T00:34:07;7.40;99.90
19680;DHT22;9989;48.962;9.182;2023-04-15T00:36:33;7.30;99.90
19680;DHT22;9989;48.962;9.182;2023-04-15T00:39:00;7.30;99.90
19680;DHT22;9989;48.962;9.182;2023-04-15T00:41:27;7.30;99.90
19680;DHT22;9989;48.962;9.182;2023-04-15T00:43:52;7.30;99.90
19680;DHT22;9989;48.962;9.182;2023-04-15T00:46:19;7.40;99.90
19680;DHT22;9989;48.962;9.182;2023-04-15T00:48:46;7.40;99.90
19680;DHT22;9989;48.962;9.182;2023-04-15T00:51:15;7.40;99.90
19680;DHT22;9989;48.962;9.182;2023-04-15T00:53:40;7.40;99.90
19680;DHT22;9989;48.962;9.182;2023-04-15T00:56:06;7.40;99.90
19680;DHT22;9989;48.962;9.182;2023-04-15T00:58:32;7.40;99.90
19680;DHT22;9989;48.962;9.182;2023-04-15T01:00:58;7.40;99.90
19680;DHT22;9989;48.962;9.182;2023-04-15T01:03:24;7.40;99.90
19680;DHT22;9989;48.962;9.182;2023-04-15T01:05:50;7.40;99.90
19680;DHT22;9989;48.962;9.182;2023-04-15T01:08:27;7.40;99.90
19680;DHT22;9989;48.962;9.182;2023-04-15T01:10:55;7.40;99.90
19680;DHT22;9989;48.962;9.182;2023-04-15T01:13:22;7.30;99.90
19680;DHT22;9989;48.962;9.182;2023-04-15T01:15:49;7.30;99.90
19680;DHT22;9989;48.962;9.182;2023-04-15T01:18:15;7.20;99.90
19680;DHT22;9989;48.962;9.182;2023-04-15T01:20:40;7.10;99.90
19680;DHT22;9989;48.962;9.182;2023-04-15T01:23:06;7.00;99.90
19680;DHT22;9989;48.962;9.182;2023-04-15T01:25:33;7.00;99.90
19680;DHT22;9989;48.962;9.182;2023-04-15T01:27:59;7.00;99.90
19680;DHT22;9989;48.962;9.182;2023-04-15T01:30:25;7.00;99.90
19680;DHT22;9989;48.962;9.182;2023-04-15T01:32:51;7.00;99.90
19680;DHT22;9989;48.962;9.182;2023-04-15T01:35:17;7.00;99.90
19680;DHT22;9989;48.962;9.182;2023-04-15T01:38:21;7.00;99.90
19680;DHT22;9989;48.962;9.182;2023-04-15T01:40:47;6.90;99.90
19680;DHT22;9989;48.962;9.182;2023-04-15T01:43:13;6.90;99.90
19680;DHT22;9989;48.962;9.182;2023-04-15T01:45:39;6.90;99.90
19680;DHT22;9989;48.962;9.182;2023-04-15T01:48:06;6.80;99.90
19680;DHT22;9989;48.962;9.182;2023-04-15T01:50:31;6.80;99.90
19680;DHT22;9989;48.962;9.182;2023-04-15T01:52:57;6.70;99.90
19680;DHT22;9989;48.962;9.182;2023-04-15T01:55:22;6.60;99.90
19680;DHT22;9989;48.962;9.182;2023-04-15T01:57:48;6.60;99.90
19680;DHT22;9989;48.962;9.182;2023-04-15T02:00:14;6.60;99.90
19680;DHT22;9989;48.962;9.182;2023-04-15T02:02:39;6.50;99.90
19680;DHT22;9989;48.962;9.182;2023-04-15T02:05:05;6.50;99.90
19680;DHT22;9989;48.962;9.182;2023-04-15T02:07:31;6.40;99.90
19680;DHT22;9989;48.962;9.182;2023-04-15T02:09:57;6.40;99.90
19680;DHT22;9989;48.962;9.182;2023-04-15T02:12:22;6.40;99.90
19680;DHT22;9989;48.962;9.182;2023-04-15T02:14:48;6.30;99.90
19680;DHT22;9989;48.962;9.182;2023-04-15T02:17:13;6.30;99.90
19680;DHT22;9989;48.962;9.182;2023-04-15T02:19:39;6.30;99.90
19680;DHT22;9989;48.962;9.182;2023-04-15T02:22:05;6.30;99.90
19680;DHT22;9989;48.962;9.182;2023-04-15T02:24:33;6.30;99.90
19680;DHT22;9989;48.962;9.182;2023-04-15T02:26:59;6.30;99.90
19680;DHT22;9989;48.962;9.182;2023-04-15T02:29:26;6.30;99.90
19680;DHT22;9989;48.962;9.182;2023-04-15T02:31:51;6.20;99.90
19680;DHT22;9989;48.962;9.182;2023-04-15T02:34:17;6.20;99.90
19680;DHT22;9989;48.962;9.182;2023-04-15T02:37:11;6.20;99.90
19680;DHT22;9989;48.962;9.182;2023-04-15T02:39:36;6.20;99.90
19680;DHT22;9989;48.962;9.182;2023-04-15T02:42:02;6.20;99.90
19680;DHT22;9989;48.962;9.182;2023-04-15T02:44:29;6.30;99.90
19680;DHT22;9989;48.962;9.182;2023-04-15T02:46:56;6.30;99.90
19680;DHT22;9989;48.962;9.182;2023-04-15T02:49:23;6.30;99.90
19680;DHT22;9989;48.962;9.182;2023-04-15T02:51:48;6.40;99.90
19680;DHT22;9989;48.962;9.182;2023-04-15T02:54:18;6.40;99.90
19680;DHT22;9989;48.962;9.182;2023-04-15T02:56:44;6.40;99.90
19680;DHT22;9989;48.962;9.182;2023-04-15T02:59:10;6.40;99.90
19680;DHT22;9989;48.962;9.182;2023-04-15T03:01:36;6.40;99.90
19680;DHT22;9989;48.962;9.182;2023-04-15T03:04:02;6.40;99.90
19680;DHT22;9989;48.962;9.182;2023-04-15T03:06:27;6.40;99.90
19680;DHT22;9989;48.962;9.182;2023-04-15T03:08:53;6.40;99.90
19680;DHT22;9989;48.962;9.182;2023-04-15T03:11:19;6.40;99.90
19680;DHT22;9989;48.962;9.182;2023-04-15T03:13:45;6.40;99.90
19680;DHT22;9989;48.962;9.182;2023-04-15T03:16:11;6.40;99.90
19680;DHT22;9989;48.962;9.182;2023-04-15T03:18:37;6.40;99.90
19680;DHT22;9989;48.962;9.182;2023-04-15T03:21:03;6.30;99.90
19680;DHT22;9989;48.962;9.182;2023-04-15T03:23:30;6.30;99.90
19680;DHT22;9989;48.962;9.182;2023-04-15T03:25:56;6.30;99.90
19680;DHT22;9989;48.962;9.182;2023-04-15T03:28:23;6.30;99.90
19680;DHT22;9989;48.962;9.182;2023-04-15T03:30:48;6.40;99.90
19680;DHT22;9989;48.962;9.182;2023-04-15T03:33:14;6.40;99.90
19680;DHT22;9989;48.962;9.182;2023-04-15T03:35:39;6.40;99.90
19680;DHT22;9989;48.962;9.182;2023-04-15T03:38:05;6.30;99.90
19680;DHT22;9989;48.962;9.182;2023-04-15T03:40:31;6.30;99.90
19680;DHT22;9989;48.962;9.182;2023-04-15T03:42:56;6.40;99.90
19680;DHT22;9989;48.962;9.182;2023-04-15T03:45:22;6.40;99.90
19680;DHT22;9989;48.962;9.182;2023-04-15T03:47:48;6.40;99.90
19680;DHT22;9989;48.962;9.182;2023-04-15T03:50:16;6.40;99.90
19680;DHT22;9989;48.962;9.182;2023-04-15T03:52:41;6.40;99.90
19680;DHT22;9989;48.962;9.182;2023-04-15T03:55:07;6.40;99.90
19680;DHT22;9989;48.962;9.182;2023-04-15T03:57:33;6.40;99.90
19680;DHT22;9989;48.962;9.182;2023-04-15T04:00:06;6.40;99.90
19680;DHT22;9989;48.962;9.182;2023-04-15T04:02:32;6.30;99.90
19680;DHT22;9989;48.962;9.182;2023-04-15T04:04:57;6.40;99.90
19680;DHT22;9989;48.962;9.182;2023-04-15T04:07:23;6.30;99.90
19680;DHT22;9989;48.962;9.182;2023-04-15T04:09:49;6.30;99.90
19680;DHT22;9989;48.962;9.182;2023-04-15T04:12:15;6.30;99.90
19680;DHT22;9989;48.962;9.182;2023-04-15T04:14:40;6.30;99.90
19680;DHT22;9989;48.962;9.182;2023-04-15T04:17:06;6.20;99.90
19680;DHT22;9989;48.962;9.182;2023-04-15T04:19:32;6.20;99.90
19680;DHT22;9989;48.962;9.182;2023-04-15T04:21:58;6.10;99.90
19680;DHT22;9989;48.962;9.182;2023-04-15T04:24:23;6.10;99.90
19680;DHT22;9989;48.962;9.182;2023-04-15T04:26:49;6.10;99.90
19680;DHT22;9989;48.962;9.182;2023-04-15T04:29:15;6.10;99.90
19680;DHT22;9989;48.962;9.182;2023-04-15T04:31:41;6.10;99.90
19680;DHT22;9989;48.962;9.182;2023-04-15T04:34:06;6.10;99.90
19680;DHT22;9989;48.962;9.182;2023-04-15T04:36:32;6.00;99.90
19680;DHT22;9989;48.962;9.182;2023-04-15T04:38:57;6.00;99.90
19680;DHT22;9989;48.962;9.182;2023-04-15T04:41:23;6.00;99.90
19680;DHT22;9989;48.962;9.182;2023-04-15T04:43:48;6.00;99.90
19680;DHT22;9989;48.962;9.182;2023-04-15T04:46:14;6.00;99.90
19680;DHT22;9989;48.962;9.182;2023-04-15T04:48:39;6.00;99.90
19680;DHT22;9989;48.962;9.182;2023-04-15T04:51:05;6.00;99.90
19680;DHT22;9989;48.962;9.182;2023-04-15T04:53:32;5.90;99.90
19680;DHT22;9989;48.962;9.182;2023-04-15T04:55:57;5.90;99.90
19680;DHT22;9989;48.962;9.182;2023-04-15T04:58:23;5.90;99.90
19680;DHT22;9989;48.962;9.182;2023-04-15T05:00:51;5.90;99.90
19680;DHT22;9989;48.962;9.182;2023-04-15T05:03:17;5.90;99.90
19680;DHT22;9989;48.962;9.182;2023-04-15T05:05:42;5.90;99.90
19680;DHT22;9989;48.962;9.182;2023-04-15T05:08:08;5.90;99.90
19680;DHT22;9989;48.962;9.182;2023-04-15T05:10:34;5.90;99.90
19680;DHT22;9989;48.962;9.182;2023-04-15T05:13:00;6.00;99.90
19680;DHT22;9989;48.962;9.182;2023-04-15T05:15:25;6.00;99.90
19680;DHT22;9989;48.962;9.182;2023-04-15T05:17:51;6.10;99.90
19680;DHT22;9989;48.962;9.182;2023-04-15T05:20:16;6.00;99.90
19680;DHT22;9989;48.962;9.182;2023-04-15T05:22:42;6.10;99.90
19680;DHT22;9989;48.962;9.182;2023-04-15T05:25:08;6.10;99.90
19680;DHT22;9989;48.962;9.182;2023-04-15T05:27:34;6.10;99.90
19680;DHT22;9989;48.962;9.182;2023-04-15T05:30:00;6.10;99.90
19680;DHT22;9989;48.962;9.182;2023-04-15T05:32:25;6.00;99.90
19680;DHT22;9989;48.962;9.182;2023-04-15T05:34:51;5.90;99.90
19680;DHT22;9989;48.962;9.182;2023-04-15T05:40:38;5.90;99.90
19680;DHT22;9989;48.962;9.182;2023-04-15T05:43:04;5.90;99.90
19680;DHT22;9989;48.962;9.182;2023-04-15T05:45:30;5.90;99.90
19680;DHT22;9989;48.962;9.182;2023-04-15T05:47:56;6.00;99.90
19680;DHT22;9989;48.962;9.182;2023-04-15T05:50:21;6.10;99.90
19680;DHT22;9989;48.962;9.182;2023-04-15T05:52:47;6.20;99.90
19680;DHT22;9989;48.962;9.182;2023-04-15T05:55:12;6.20;99.90
19680;DHT22;9989;48.962;9.182;2023-04-15T05:57:38;6.30;99.90
19680;DHT22;9989;48.962;9.182;2023-04-15T06:00:05;6.40;99.90
19680;DHT22;9989;48.962;9.182;2023-04-15T06:02:30;6.50;99.90
19680;DHT22;9989;48.962;9.182;2023-04-15T06:04:57;6.70;99.90
19680;DHT22;9989;48.962;9.182;2023-04-15T06:07:23;6.80;99.90
19680;DHT22;9989;48.962;9.182;2023-04-15T06:09:48;6.80;99.90
19680;DHT22;9989;48.962;9.182;2023-04-15T06:12:14;6.90;99.90
19680;DHT22;9989;48.962;9.182;2023-04-15T06:14:41;7.00;99.90
19680;DHT22;9989;48.962;9.182;2023-04-15T06:17:07;7.10;99.90
19680;DHT22;9989;48.962;9.182;2023-04-15T06:19:33;7.20;99.90
19680;DHT22;9989;48.962;9.182;2023-04-15T06:21:59;7.30;99.90
19680;DHT22;9989;48.962;9.182;2023-04-15T06:24:25;7.40;99.90
19680;DHT22;9989;48.962;9.182;2023-04-15T06:26:50;7.50;99.90
19680;DHT22;9989;48.962;9.182;2023-04-15T06:29:16;7.60;99.90
19680;DHT22;9989;48.962;9.182;2023-04-15T06:31:41;7.70;99.90
19680;DHT22;9989;48.962;9.182;2023-04-15T06:34:07;7.80;99.90
19680;DHT22;9989;48.962;9.182;2023-04-15T06:36:32;7.90;99.90
19680;DHT22;9989;48.962;9.182;2023-04-15T06:38:58;8.00;99.90
19680;DHT22;9989;48.962;9.182;2023-04-15T06:41:24;8.10;99.90
19680;DHT22;9989;48.962;9.182;2023-04-15T06:43:49;8.20;99.90
19680;DHT22;9989;48.962;9.182;2023-04-15T06:46:15;8.30;99.90
19680;DHT22;9989;48.962;9.182;2023-04-15T06:48:41;8.40;99.90
19680;DHT22;9989;48.962;9.182;2023-04-15T06:51:07;8.50;99.90
19680;DHT22;9989;48.962;9.182;2023-04-15T06:53:32;8.50;99.90
19680;DHT22;9989;48.962;9.182;2023-04-15T06:55:58;8.60;99.90
19680;DHT22;9989;48.962;9.182;2023-04-15T06:58:23;8.70;99.90
19680;DHT22;9989;48.962;9.182;2023-04-15T07:00:49;8.60;99.90
19680;DHT22;9989;48.962;9.182;2023-04-15T07:03:15;8.50;99.90
19680;DHT22;9989;48.962;9.182;2023-04-15T07:05:40;8.50;99.90
19680;DHT22;9989;48.962;9.182;2023-04-15T07:08:06;8.50;99.90
19680;DHT22;9989;48.962;9.182;2023-04-15T07:10:34;8.60;99.90
19680;DHT22;9989;48.962;9.182;2023-04-15T07:13:00;8.60;99.90
19680;DHT22;9989;48.962;9.182;2023-04-15T07:15:26;8.60;99.90
19680;DHT22;9989;48.962;9.182;2023-04-15T07:17:51;8.70;99.90
19680;DHT22;9989;48.962;9.182;2023-04-15T07:20:17;8.70;99.90
19680;DHT22;9989;48.962;9.182;2023-04-15T07:22:43;8.80;99.90
19680;DHT22;9989;48.962;9.182;2023-04-15T07:25:08;8.80;99.90
19680;DHT22;9989;48.962;9.182;2023-04-15T07:27:34;8.90;99.90
19680;DHT22;9989;48.962;9.182;2023-04-15T07:30:00;9.00;99.90
19680;DHT22;9989;48.962;9.182;2023-04-15T07:32:26;9.10;99.90
19680;DHT22;9989;48.962;9.182;2023-04-15T07:34:51;9.30;99.90
19680;DHT22;9989;48.962;9.182;2023-04-15T07:37:17;9.50;99.90
19680;DHT22;9989;48.962;9.182;2023-04-15T07:39:44;9.80;99.90
19680;DHT22;9989;48.962;9.182;2023-04-15T07:42:09;10.00;99.90
19680;DHT22;9989;48.962;9.182;2023-04-15T07:44:35;10.20;99.90
19680;DHT22;9989;48.962;9.182;2023-04-15T07:47:01;10.40;99.90
19680;DHT22;9989;48.962;9.182;2023-04-15T07:49:27;10.60;99.90
19680;DHT22;9989;48.962;9.182;2023-04-15T07:51:53;10.80;99.90
19680;DHT22;9989;48.962;9.182;2023-04-15T07:54:19;11.00;99.90
19680;DHT22;9989;48.962;9.182;2023-04-15T07:56:45;11.10;99.90
19680;DHT22;9989;48.962;9.182;2023-04-15T07:59:10;11.20;99.90
19680;DHT22;9989;48.962;9.182;2023-04-15T08:01:36;11.30;99.90
19680;DHT22;9989;48.962;9.182;2023-04-15T08:04:02;11.40;99.90
19680;DHT22;9989;48.962;9.182;2023-04-15T08:06:27;11.60;99.90
19680;DHT22;9989;48.962;9.182;2023-04-15T08:08:53;11.70;99.90
19680;DHT22;9989;48.962;9.182;2023-04-15T08:11:19;11.90;99.90
19680;DHT22;9989;48.962;9.182;2023-04-15T08:13:46;11.90;99.90
19680;DHT22;9989;48.962;9.182;2023-04-15T08:18:44;11.80;99.90
19680;DHT22;9989;48.962;9.182;2023-04-15T08:21:10;11.80;99.90
19680;DHT22;9989;48.962;9.182;2023-04-15T08:23:36;12.00;99.90
19680;DHT22;9989;48.962;9.182;2023-04-15T08:26:02;12.30;99.90
19680;DHT22;9989;48.962;9.182;2023-04-15T08:28:27;12.50;99.90
19680;DHT22;9989;48.962;9.182;2023-04-15T08:30:53;12.90;99.90
19680;DHT22;9989;48.962;9.182;2023-04-15T08:33:18;13.00;99.90
19680;DHT22;9989;48.962;9.182;2023-04-15T08:35:45;13.10;99.90
19680;DHT22;9989;48.962;9.182;2023-04-15T08:38:10;13.10;99.90
19680;DHT22;9989;48.962;9.182;2023-04-15T08:40:43;13.30;99.90
19680;DHT22;9989;48.962;9.182;2023-04-15T08:43:12;13.50;99.90
19680;DHT22;9989;48.962;9.182;2023-04-15T08:45:40;13.70;99.90
19680;DHT22;9989;48.962;9.182;2023-04-15T08:48:08;13.80;99.90
19680;DHT22;9989;48.962;9.182;2023-04-15T08:50:36;13.80;99.90
19680;DHT22;9989;48.962;9.182;2023-04-15T08:53:02;13.70;99.90
19680;DHT22;9989;48.962;9.182;2023-04-15T08:55:29;13.90;99.90
19680;DHT22;9989;48.962;9.182;2023-04-15T08:57:58;14.10;99.90
19680;DHT22;9989;48.962;9.182;2023-04-15T09:00:24;14.50;99.90
19680;DHT22;9989;48.962;9.182;2023-04-15T09:02:50;14.80;99.90
19680;DHT22;9989;48.962;9.182;2023-04-15T09:05:16;15.20;99.90
19680;DHT22;9989;48.962;9.182;2023-04-15T09:07:42;15.50;99.90
19680;DHT22;9989;48.962;9.182;2023-04-15T09:10:09;15.70;99.90
19680;DHT22;9989;48.962;9.182;2023-04-15T09:12:35;15.90;99.90
19680;DHT22;9989;48.962;9.182;2023-04-15T09:15:01;16.10;99.90
19680;DHT22;9989;48.962;9.182;2023-04-15T09:17:27;16.30;99.60
19680;DHT22;9989;48.962;9.182;2023-04-15T09:20:13;16.40;98.50
19680;DHT22;9989;48.962;9.182;2023-04-15T09:22:40;16.40;98.20
19680;DHT22;9989;48.962;9.182;2023-04-15T09:25:27;16.40;98.30
19680;DHT22;9989;48.962;9.182;2023-04-15T09:27:55;16.40;97.50
19680;DHT22;9989;48.962;9.182;2023-04-15T09:30:22;16.50;97.40
19680;DHT22;9989;48.962;9.182;2023-04-15T09:32:57;16.60;96.90
19680;DHT22;9989;48.962;9.182;2023-04-15T09:35:24;16.60;96.50
19680;DHT22;9989;48.962;9.182;2023-04-15T09:37:51;16.70;95.70
19680;DHT22;9989;48.962;9.182;2023-04-15T09:40:36;16.70;95.90
19680;DHT22;9989;48.962;9.182;2023-04-15T09:43:03;16.80;96.00
19680;DHT22;9989;48.962;9.182;2023-04-15T09:45:30;16.80;95.40
19680;DHT22;9989;48.962;9.182;2023-04-15T09:48:15;16.90;95.00
19680;DHT22;9989;48.962;9.182;2023-04-15T09:50:41;17.00;94.40
19680;DHT22;9989;48.962;9.182;2023-04-15T09:53:10;17.00;93.50
19680;DHT22;9989;48.962;9.182;2023-04-15T09:55:36;17.10;93.40
19680;DHT22;9989;48.962;9.182;2023-04-15T09:58:07;17.20;92.80
19680;DHT22;9989;48.962;9.182;2023-04-15T10:00:36;17.30;92.80
19680;DHT22;9989;48.962;9.182;2023-04-15T10:03:04;17.40;92.60
19680;DHT22;9989;48.962;9.182;2023-04-15T10:05:30;17.70;91.60
19680;DHT22;9989;48.962;9.182;2023-04-15T10:07:57;18.00;91.00
19680;DHT22;9989;48.962;9.182;2023-04-15T10:10:23;18.20;87.30
19680;DHT22;9989;48.962;9.182;2023-04-15T10:12:50;18.30;86.90
19680;DHT22;9989;48.962;9.182;2023-04-15T10:15:17;18.30;86.40
19680;DHT22;9989;48.962;9.182;2023-04-15T10:17:43;18.30;85.40
19680;DHT22;9989;48.962;9.182;2023-04-15T10:20:10;18.30;87.50
19680;DHT22;9989;48.962;9.182;2023-04-15T10:22:37;18.20;81.80
19680;DHT22;9989;48.962;9.182;2023-04-15T10:25:05;18.20;83.90
19680;DHT22;9989;48.962;9.182;2023-04-15T10:27:31;18.20;83.30
19680;DHT22;9989;48.962;9.182;2023-04-15T10:29:59;18.20;83.20
19680;DHT22;9989;48.962;9.182;2023-04-15T10:32:25;18.40;83.50
19680;DHT22;9989;48.962;9.182;2023-04-15T10:34:51;18.60;80.70
19680;DHT22;9989;48.962;9.182;2023-04-15T10:37:24;18.70;79.70
19680;DHT22;9989;48.962;9.182;2023-04-15T10:43:04;19.00;83.20
19680;DHT22;9989;48.962;9.182;2023-04-15T10:45:35;19.30;82.80
19680;DHT22;9989;48.962;9.182;2023-04-15T10:48:03;19.60;81.00
19680;DHT22;9989;48.962;9.182;2023-04-15T10:50:30;19.90;80.30
19680;DHT22;9989;48.962;9.182;2023-04-15T10:52:57;20.30;78.50
19680;DHT22;9989;48.962;9.182;2023-04-15T10:55:31;20.50;78.80
19680;DHT22;9989;48.962;9.182;2023-04-15T10:58:01;20.60;79.20
19680;DHT22;9989;48.962;9.182;2023-04-15T11:00:31;20.60;78.30
19680;DHT22;9989;48.962;9.182;2023-04-15T11:03:03;20.60;76.50
19680;DHT22;9989;48.962;9.182;2023-04-15T11:08:14;20.40;76.20
19680;DHT22;9989;48.962;9.182;2023-04-15T11:15:38;19.40;78.10
19680;DHT22;9989;48.962;9.182;2023-04-15T11:18:20;19.20;77.50
19680;DHT22;9989;48.962;9.182;2023-04-15T11:20:51;19.20;75.30
19680;DHT22;9989;48.962;9.182;2023-04-15T11:23:35;19.20;72.00
19680;DHT22;9989;48.962;9.182;2023-04-15T11:26:03;19.20;72.90
19680;DHT22;9989;48.962;9.182;2023-04-15T11:28:31;19.30;72.30
19680;DHT22;9989;48.962;9.182;2023-04-15T11:30:57;19.20;71.70
19680;DHT22;9989;48.962;9.182;2023-04-15T11:33:25;19.10;71.80
19680;DHT22;9989;48.962;9.182;2023-04-15T11:35:52;18.90;72.40
19680;DHT22;9989;48.962;9.182;2023-04-15T11:38:19;18.70;72.70
19680;DHT22;9989;48.962;9.182;2023-04-15T11:41:19;18.40;73.50
19680;DHT22;9989;48.962;9.182;2023-04-15T11:43:45;18.10;74.80
19680;DHT22;9989;48.962;9.182;2023-04-15T11:46:11;17.80;76.30
19680;DHT22;9989;48.962;9.182;2023-04-15T11:48:42;17.70;76.30
19680;DHT22;9989;48.962;9.182;2023-04-15T11:51:08;17.70;76.30
19680;DHT22;9989;48.962;9.182;2023-04-15T11:53:43;17.70;75.80
19680;DHT22;9989;48.962;9.182;2023-04-15T11:56:21;17.80;75.80
19680;DHT22;9989;48.962;9.182;2023-04-15T11:58:47;17.80;75.90
19680;DHT22;9989;48.962;9.182;2023-04-15T12:01:16;17.80;78.20
19680;DHT22;9989;48.962;9.182;2023-04-15T12:03:45;17.60;80.60
19680;DHT22;9989;48.962;9.182;2023-04-15T12:06:18;17.30;81.80
19680;DHT22;9989;48.962;9.182;2023-04-15T12:13:57;16.30;84.70
19680;DHT22;9989;48.962;9.182;2023-04-15T12:16:24;15.80;86.40
19680;DHT22;9989;48.962;9.182;2023-04-15T12:18:51;15.40;86.40
19680;DHT22;9989;48.962;9.182;2023-04-15T12:21:33;15.00;89.30
19680;DHT22;9989;48.962;9.182;2023-04-15T12:24:01;14.50;91.90
19680;DHT22;9989;48.962;9.182;2023-04-15T12:29:03;13.90;91.20
19680;DHT22;9989;48.962;9.182;2023-04-15T12:31:29;13.80;92.10
19680;DHT22;9989;48.962;9.182;2023-04-15T12:33:56;13.70;92.60
19680;DHT22;9989;48.962;9.182;2023-04-15T12:36:23;13.70;93.30
19680;DHT22;9989;48.962;9.182;2023-04-15T12:38:49;13.80;94.20
19680;DHT22;9989;48.962;9.182;2023-04-15T12:41:39;13.90;94.10
19680;DHT22;9989;48.962;9.182;2023-04-15T12:44:05;14.00;94.40
19680;DHT22;9989;48.962;9.182;2023-04-15T12:46:30;14.20;93.70
19680;DHT22;9989;48.962;9.182;2023-04-15T12:48:56;14.20;94.10
19680;DHT22;9989;48.962;9.182;2023-04-15T12:51:22;14.30;94.60
19680;DHT22;9989;48.962;9.182;2023-04-15T12:53:48;14.40;95.10
19680;DHT22;9989;48.962;9.182;2023-04-15T12:56:14;14.40;94.50
19680;DHT22;9989;48.962;9.182;2023-04-15T12:58:41;14.50;94.60
19680;DHT22;9989;48.962;9.182;2023-04-15T13:01:06;14.60;94.60
19680;DHT22;9989;48.962;9.182;2023-04-15T13:03:32;14.60;88.70
19680;DHT22;9989;48.962;9.182;2023-04-15T13:05:57;14.60;85.40
19680;DHT22;9989;48.962;9.182;2023-04-15T13:08:23;14.70;85.30
19680;DHT22;9989;48.962;9.182;2023-04-15T13:10:49;14.70;82.00
19680;DHT22;9989;48.962;9.182;2023-04-15T13:13:14;14.70;80.30
19680;DHT22;9989;48.962;9.182;2023-04-15T13:15:40;14.70;78.50
19680;DHT22;9989;48.962;9.182;2023-04-15T13:18:06;14.80;77.60
19680;DHT22;9989;48.962;9.182;2023-04-15T13:20:32;14.80;77.30
19680;DHT22;9989;48.962;9.182;2023-04-15T13:22:58;14.80;77.70
19680;DHT22;9989;48.962;9.182;2023-04-15T13:25:24;14.70;74.80
19680;DHT22;9989;48.962;9.182;2023-04-15T13:27:50;14.70;75.40
19680;DHT22;9989;48.962;9.182;2023-04-15T13:30:16;14.80;76.00
19680;DHT22;9989;48.962;9.182;2023-04-15T13:32:41;14.80;75.40
19680;DHT22;9989;48.962;9.182;2023-04-15T13:35:07;14.80;75.40
19680;DHT22;9989;48.962;9.182;2023-04-15T13:37:33;14.80;76.60
19680;DHT22;9989;48.962;9.182;2023-04-15T13:39:58;14.70;76.20
19680;DHT22;9989;48.962;9.182;2023-04-15T13:42:24;14.70;77.10
19680;DHT22;9989;48.962;9.182;2023-04-15T13:44:50;14.60;76.30
19680;DHT22;9989;48.962;9.182;2023-04-15T13:47:16;14.50;77.10
19680;DHT22;9989;48.962;9.182;2023-04-15T13:49:42;14.50;76.50
19680;DHT22;9989;48.962;9.182;2023-04-15T13:52:08;14.40;76.40
19680;DHT22;9989;48.962;9.182;2023-04-15T13:54:33;14.30;77.40
19680;DHT22;9989;48.962;9.182;2023-04-15T13:56:59;14.30;78.00
19680;DHT22;9989;48.962;9.182;2023-04-15T13:59:26;14.20;78.60
19680;DHT22;9989;48.962;9.182;2023-04-15T14:01:51;14.20;78.80
19680;DHT22;9989;48.962;9.182;2023-04-15T14:04:17;14.10;79.00
19680;DHT22;9989;48.962;9.182;2023-04-15T14:06:43;14.00;79.80
19680;DHT22;9989;48.962;9.182;2023-04-15T14:09:09;14.00;80.60
19680;DHT22;9989;48.962;9.182;2023-04-15T14:11:37;13.90;81.20
19680;DHT22;9989;48.962;9.182;2023-04-15T14:14:03;13.90;82.70
19680;DHT22;9989;48.962;9.182;2023-04-15T14:16:28;13.90;82.80
19680;DHT22;9989;48.962;9.182;2023-04-15T14:18:54;13.80;83.30
19680;DHT22;9989;48.962;9.182;2023-04-15T14:21:20;13.80;84.10
19680;DHT22;9989;48.962;9.182;2023-04-15T14:23:45;13.80;84.50
19680;DHT22;9989;48.962;9.182;2023-04-15T14:26:11;13.80;84.30
19680;DHT22;9989;48.962;9.182;2023-04-15T14:28:37;13.90;84.80
19680;DHT22;9989;48.962;9.182;2023-04-15T14:31:03;13.90;84.90
19680;DHT22;9989;48.962;9.182;2023-04-15T14:33:29;13.90;84.80
19680;DHT22;9989;48.962;9.182;2023-04-15T14:35:55;13.90;82.30
19680;DHT22;9989;48.962;9.182;2023-04-15T14:38:20;13.90;80.60
19680;DHT22;9989;48.962;9.182;2023-04-15T14:40:47;13.90;80.70
19680;DHT22;9989;48.962;9.182;2023-04-15T14:43:12;13.90;81.20
19680;DHT22;9989;48.962;9.182;2023-04-15T14:45:38;13.80;81.00
19680;DHT22;9989;48.962;9.182;2023-04-15T14:48:04;13.70;81.80
19680;DHT22;9989;48.962;9.182;2023-04-15T14:50:30;13.60;82.30
19680;DHT22;9989;48.962;9.182;2023-04-15T14:52:57;13.50;83.30
19680;DHT22;9989;48.962;9.182;2023-04-15T14:55:22;13.50;83.90
19680;DHT22;9989;48.962;9.182;2023-04-15T14:57:48;13.40;84.30
19680;DHT22;9989;48.962;9.182;2023-04-15T15:00:14;13.30;84.70
19680;DHT22;9989;48.962;9.182;2023-04-15T15:02:39;13.30;83.90
19680;DHT22;9989;48.962;9.182;2023-04-15T15:05:08;13.20;92.20
19680;DHT22;9989;48.962;9.182;2023-04-15T15:07:34;13.20;91.70
19680;DHT22;9989;48.962;9.182;2023-04-15T15:10:01;13.30;90.90
19680;DHT22;9989;48.962;9.182;2023-04-15T15:12:27;13.40;91.80
19680;DHT22;9989;48.962;9.182;2023-04-15T15:14:54;13.50;90.30
19680;DHT22;9989;48.962;9.182;2023-04-15T15:17:19;13.50;90.60
19680;DHT22;9989;48.962;9.182;2023-04-15T15:19:45;13.60;90.60
19680;DHT22;9989;48.962;9.182;2023-04-15T15:22:11;13.60;90.20
19680;DHT22;9989;48.962;9.182;2023-04-15T15:24:36;13.60;90.60
19680;DHT22;9989;48.962;9.182;2023-04-15T15:27:02;13.60;90.60
19680;DHT22;9989;48.962;9.182;2023-04-15T15:29:27;13.50;90.80
19680;DHT22;9989;48.962;9.182;2023-04-15T15:31:56;13.50;90.80
19680;DHT22;9989;48.962;9.182;2023-04-15T15:34:21;13.40;90.90
19680;DHT22;9989;48.962;9.182;2023-04-15T15:36:47;13.30;91.10
19680;DHT22;9989;48.962;9.182;2023-04-15T15:39:13;13.30;91.40
19680;DHT22;9989;48.962;9.182;2023-04-15T15:45:14;13.20;92.40
19680;DHT22;9989;48.962;9.182;2023-04-15T15:47:40;13.10;95.40
19680;DHT22;9989;48.962;9.182;2023-04-15T15:50:06;12.90;96.30
19680;DHT22;9989;48.962;9.182;2023-04-15T15:52:31;12.80;97.00
19680;DHT22;9989;48.962;9.182;2023-04-15T15:54:57;12.80;98.30
19680;DHT22;9989;48.962;9.182;2023-04-15T15:57:23;12.70;99.00
19680;DHT22;9989;48.962;9.182;2023-04-15T15:59:48;12.70;99.80
19680;DHT22;9989;48.962;9.182;2023-04-15T16:02:14;12.60;99.90
19680;DHT22;9989;48.962;9.182;2023-04-15T16:04:39;12.50;99.90
19680;DHT22;9989;48.962;9.182;2023-04-15T16:07:09;12.50;99.90
19680;DHT22;9989;48.962;9.182;2023-04-15T16:09:36;12.50;99.90
19680;DHT22;9989;48.962;9.182;2023-04-15T16:12:01;12.40;99.90
19680;DHT22;9989;48.962;9.182;2023-04-15T16:14:28;12.40;99.90
19680;DHT22;9989;48.962;9.182;2023-04-15T16:16:54;12.40;99.90
19680;DHT22;9989;48.962;9.182;2023-04-15T16:19:20;12.40;99.90